Thursday, January 18, 2018, 6:55 PM EST
Back to Local

KPHL, Philadelphia International Airpt

Location: Philadelphia, PA, United States Lat: 39.867
Local Time: 6:55 PM EST (23:55 GMT) Lon: -75.233
Time Zone: US/Eastern Elev: 19 ft

Show me the last for .
Show Decoded

2018-01-18 17:54 METAR KPHL 182254Z 33009KT 10SM CLR 01/M12 A3005 RMK AO2 PRESRR SLP175 T00061122
                 =
2018-01-18 16:54 METAR KPHL 182154Z VRB05KT 10SM CLR 01/M13 A3001 RMK AO2 SLP161 T00111128 =
2018-01-18 15:54 METAR KPHL 182054Z VRB06KT 10SM CLR 02/M13 A3000 RMK AO2 SLP158 T00171133 55008
                 =
2018-01-18 14:54 METAR KPHL 181954Z 32010KT 10SM FEW250 02/M13 A2999 RMK AO2 SLP156 T00171133 =
2018-01-18 13:54 METAR KPHL 181854Z 29010G18KT 10SM FEW250 01/M14 A3000 RMK AO2 SLP158 T00061139
                 =
2018-01-18 12:54 METAR KPHL 181754Z 31011G20KT 10SM FEW250 00/M14 A3002 RMK AO2 SLP166 T00001144
                 10000 21072 58039 =
2018-01-18 11:54 METAR KPHL 181654Z 29010KT 10SM FEW250 M01/M14 A3008 RMK AO2 SLP184 T10061144 =
2018-01-18 10:54 METAR KPHL 181554Z 30012G20KT 10SM FEW250 M02/M15 A3011 RMK AO2 SLP196 T10221150
                 =
2018-01-18 09:54 METAR KPHL 181454Z 29010KT 10SM FEW250 M04/M15 A3014 RMK AO2 SLP205 T10391150
                 55006 =
2018-01-18 08:54 METAR KPHL 181354Z 31008KT 10SM FEW120 FEW250 M05/M15 A3013 RMK AO2 SLP203
                 T10501150 =
2018-01-18 07:54 METAR KPHL 181254Z 28007KT 10SM FEW120 FEW250 M07/M14 A3013 RMK AO2 SLP202
                 T10721144 =
2018-01-18 06:54 METAR KPHL 181154Z 28005KT 10SM FEW120 FEW250 M07/M14 A3015 RMK AO2 SLP210 70002
                 T10721144 11067 21078 53005 =
2018-01-18 05:54 METAR KPHL 181054Z 27004KT 10SM FEW150 SCT210 M07/M14 A3014 RMK AO2 SLP207
                 T10721144 =
2018-01-18 04:54 METAR KPHL 180954Z 32008KT 10SM FEW150 SCT210 M08/M14 A3009 RMK AO2 SLP190
                 T10781144 =
2018-01-18 03:54 METAR KPHL 180854Z 34011KT 10SM FEW150 SCT210 M07/M14 A3014 RMK AO2 SLP205
                 T10721139 56028 =
2018-01-18 02:54 METAR KPHL 180754Z 33012KT 10SM FEW220 M07/M14 A3014 RMK AO2 PRESFR SLP207
                 T10721139 =
2018-01-18 01:54 METAR KPHL 180654Z 30009KT 10SM FEW220 M07/M14 A3020 RMK AO2 SLP227 T10721139 =
2018-01-18 00:54 METAR KPHL 180554Z 29007KT 10SM FEW180 M07/M13 A3022 RMK AO2 SLP234 T10671133
                 11039 21067 58012 =
2018-01-17 23:54 METAR KPHL 180454Z 31008KT 10SM FEW220 M06/M13 A3025 RMK AO2 SLP242 T10561133
                 400441061 =
2018-01-17 22:54 METAR KPHL 180354Z 31009KT 10SM FEW160 FEW220 M06/M13 A3025 RMK AO2 SLP242
                 T10561128 =
2018-01-17 21:54 METAR KPHL 180254Z 31007KT 10SM SCT150 OVC200 M05/M13 A3026 RMK AO2 SLP245
                 T10501128 56002 =
2018-01-17 20:54 METAR KPHL 180154Z 33013KT 10SM OVC160 M04/M13 A3026 RMK AO2 SLP247 T10441133 =
2018-01-17 19:54 METAR KPHL 180054Z 33012G20KT 10SM OVC160 M04/M12 A3025 RMK AO2 SLP243 T10391122
                 =

Support USWX by starting your Amazon purchase here.